sensor_id;sensor_type;location;lat;lon;timestamp;pressure;altitude;pressure_sealevel;temperature;humidity
13387;BME280;6763;48.524;9.044;2023-02-11T00:01:12;99817.78;;;1.17;52.43
13387;BME280;6763;48.524;9.044;2023-02-11T00:03:40;99814.31;;;1.15;52.21
13387;BME280;6763;48.524;9.044;2023-02-11T00:06:07;99817.56;;;1.13;52.04
13387;BME280;6763;48.524;9.044;2023-02-11T00:08:35;99813.97;;;1.09;52.14
13387;BME280;6763;48.524;9.044;2023-02-11T00:11:01;99818.28;;;1.10;52.68
13387;BME280;6763;48.524;9.044;2023-02-11T00:13:26;99810.56;;;1.09;52.26
13387;BME280;6763;48.524;9.044;2023-02-11T00:15:53;99814.78;;;1.08;52.21
13387;BME280;6763;48.524;9.044;2023-02-11T00:18:18;99813.91;;;1.08;52.13
13387;BME280;6763;48.524;9.044;2023-02-11T00:20:44;99827.38;;;1.05;52.18
13387;BME280;6763;48.524;9.044;2023-02-11T00:23:10;99816.97;;;1.01;52.47
13387;BME280;6763;48.524;9.044;2023-02-11T00:25:42;99815.13;;;0.98;52.02
13387;BME280;6763;48.524;9.044;2023-02-11T00:28:09;99824.22;;;0.93;52.56
13387;BME280;6763;48.524;9.044;2023-02-11T00:30:34;99826.44;;;0.87;52.33
13387;BME280;6763;48.524;9.044;2023-02-11T00:33:00;99822.06;;;0.85;52.63
13387;BME280;6763;48.524;9.044;2023-02-11T00:35:26;99830.41;;;0.82;52.13
13387;BME280;6763;48.524;9.044;2023-02-11T00:37:53;99833.53;;;0.77;51.91
13387;BME280;6763;48.524;9.044;2023-02-11T00:40:18;99828.19;;;0.72;51.73
13387;BME280;6763;48.524;9.044;2023-02-11T00:42:44;99824.53;;;0.67;51.95
13387;BME280;6763;48.524;9.044;2023-02-11T00:45:10;99823.63;;;0.67;51.93
13387;BME280;6763;48.524;9.044;2023-02-11T00:47:35;99826.09;;;0.65;51.88
13387;BME280;6763;48.524;9.044;2023-02-11T00:50:01;99824.25;;;0.62;51.55
13387;BME280;6763;48.524;9.044;2023-02-11T00:52:29;99820.69;;;0.59;51.89
13387;BME280;6763;48.524;9.044;2023-02-11T00:54:54;99816.53;;;0.61;52.28
13387;BME280;6763;48.524;9.044;2023-02-11T00:57:20;99826.81;;;0.62;52.21
13387;BME280;6763;48.524;9.044;2023-02-11T00:59:45;99818.31;;;0.62;52.05
13387;BME280;6763;48.524;9.044;2023-02-11T01:02:10;99817.66;;;0.66;52.39
13387;BME280;6763;48.524;9.044;2023-02-11T01:04:36;99818.63;;;0.68;52.83
13387;BME280;6763;48.524;9.044;2023-02-11T01:07:01;99808.53;;;0.70;52.11
13387;BME280;6763;48.524;9.044;2023-02-11T01:09:26;99805.09;;;0.69;52.63
13387;BME280;6763;48.524;9.044;2023-02-11T01:11:52;99806.13;;;0.73;53.40
13387;BME280;6763;48.524;9.044;2023-02-11T01:14:17;99802.38;;;0.82;53.44
13387;BME280;6763;48.524;9.044;2023-02-11T01:16:42;99796.47;;;0.83;53.17
13387;BME280;6763;48.524;9.044;2023-02-11T01:19:08;99795.91;;;0.89;53.36
13387;BME280;6763;48.524;9.044;2023-02-11T01:21:33;99802.84;;;0.91;54.00
13387;BME280;6763;48.524;9.044;2023-02-11T01:23:59;99797.28;;;0.98;54.05
13387;BME280;6763;48.524;9.044;2023-02-11T01:26:24;99794.84;;;1.01;53.61
13387;BME280;6763;48.524;9.044;2023-02-11T01:28:49;99791.53;;;1.02;53.38
13387;BME280;6763;48.524;9.044;2023-02-11T01:31:15;99792.56;;;1.06;53.17
13387;BME280;6763;48.524;9.044;2023-02-11T01:33:40;99784.81;;;1.04;53.13
13387;BME280;6763;48.524;9.044;2023-02-11T01:36:06;99786.44;;;1.02;52.75
13387;BME280;6763;48.524;9.044;2023-02-11T01:38:31;99782.84;;;0.99;52.74
13387;BME280;6763;48.524;9.044;2023-02-11T01:41:06;99789.47;;;0.95;52.48
13387;BME280;6763;48.524;9.044;2023-02-11T01:43:39;99781.50;;;0.89;52.75
13387;BME280;6763;48.524;9.044;2023-02-11T01:48:54;99779.44;;;0.82;53.17
13387;BME280;6763;48.524;9.044;2023-02-11T01:51:50;99774.41;;;0.84;52.86
13387;BME280;6763;48.524;9.044;2023-02-11T01:54:17;99765.09;;;0.84;53.11
13387;BME280;6763;48.524;9.044;2023-02-11T01:57:03;99765.88;;;0.83;52.99
13387;BME280;6763;48.524;9.044;2023-02-11T01:59:58;99763.28;;;0.82;53.18
13387;BME280;6763;48.524;9.044;2023-02-11T02:10:34;99744.31;;;0.77;53.03
13387;BME280;6763;48.524;9.044;2023-02-11T02:13:00;99740.81;;;0.75;52.65
13387;BME280;6763;48.524;9.044;2023-02-11T02:15:29;99733.03;;;0.72;52.75
13387;BME280;6763;48.524;9.044;2023-02-11T02:34:18;99725.88;;;0.48;53.09
13387;BME280;6763;48.524;9.044;2023-02-11T02:36:59;99731.97;;;0.52;52.93
13387;BME280;6763;48.524;9.044;2023-02-11T02:39:32;99730.31;;;0.52;53.11
13387;BME280;6763;48.524;9.044;2023-02-11T02:41:59;99731.19;;;0.53;52.97
13387;BME280;6763;48.524;9.044;2023-02-11T02:44:26;99729.44;;;0.52;53.14
13387;BME280;6763;48.524;9.044;2023-02-11T02:46:52;99725.38;;;0.55;53.00
13387;BME280;6763;48.524;9.044;2023-02-11T02:49:17;99727.88;;;0.54;52.75
13387;BME280;6763;48.524;9.044;2023-02-11T02:57:59;99720.06;;;0.51;53.57
13387;BME280;6763;48.524;9.044;2023-02-11T03:00:52;99709.94;;;0.52;53.55
13387;BME280;6763;48.524;9.044;2023-02-11T03:06:10;99717.56;;;0.52;53.06
13387;BME280;6763;48.524;9.044;2023-02-11T03:08:44;99697.91;;;0.50;53.32
13387;BME280;6763;48.524;9.044;2023-02-11T03:11:11;99714.09;;;0.50;53.27
13387;BME280;6763;48.524;9.044;2023-02-11T03:13:40;99707.22;;;0.49;53.14
13387;BME280;6763;48.524;9.044;2023-02-11T03:16:14;99700.47;;;0.50;52.95
13387;BME280;6763;48.524;9.044;2023-02-11T03:18:48;99702.22;;;0.51;53.65
13387;BME280;6763;48.524;9.044;2023-02-11T03:21:15;99709.00;;;0.50;52.94
13387;BME280;6763;48.524;9.044;2023-02-11T03:23:55;99715.69;;;0.48;53.23
13387;BME280;6763;48.524;9.044;2023-02-11T03:26:43;99718.13;;;0.47;53.13
13387;BME280;6763;48.524;9.044;2023-02-11T03:29:37;99710.59;;;0.48;53.38
13387;BME280;6763;48.524;9.044;2023-02-11T03:32:19;99700.41;;;0.48;53.47
13387;BME280;6763;48.524;9.044;2023-02-11T03:37:23;99694.03;;;0.56;53.43
13387;BME280;6763;48.524;9.044;2023-02-11T03:39:56;99696.63;;;0.58;53.68
13387;BME280;6763;48.524;9.044;2023-02-11T03:42:26;99696.72;;;0.59;53.75
13387;BME280;6763;48.524;9.044;2023-02-11T03:44:58;99698.47;;;0.60;53.27
13387;BME280;6763;48.524;9.044;2023-02-11T03:47:26;99698.56;;;0.62;53.45
13387;BME280;6763;48.524;9.044;2023-02-11T03:49:56;99703.66;;;0.62;53.58
13387;BME280;6763;48.524;9.044;2023-02-11T03:52:24;99705.31;;;0.61;53.46
13387;BME280;6763;48.524;9.044;2023-02-11T03:54:52;99713.84;;;0.62;53.60
13387;BME280;6763;48.524;9.044;2023-02-11T03:57:20;99718.94;;;0.62;53.53
13387;BME280;6763;48.524;9.044;2023-02-11T03:59:54;99720.69;;;0.63;53.10
13387;BME280;6763;48.524;9.044;2023-02-11T04:02:22;99730.00;;;0.62;53.66
13387;BME280;6763;48.524;9.044;2023-02-11T04:04:49;99722.28;;;0.61;53.76
13387;BME280;6763;48.524;9.044;2023-02-11T04:07:14;99706.03;;;0.59;53.72
13387;BME280;6763;48.524;9.044;2023-02-11T04:09:40;99713.75;;;0.60;53.68
13387;BME280;6763;48.524;9.044;2023-02-11T04:12:05;99724.66;;;0.58;53.21
13387;BME280;6763;48.524;9.044;2023-02-11T04:14:31;99706.75;;;0.56;53.40
13387;BME280;6763;48.524;9.044;2023-02-11T04:16:56;99726.19;;;0.54;53.57
13387;BME280;6763;48.524;9.044;2023-02-11T04:19:21;99719.50;;;0.56;53.26
13387;BME280;6763;48.524;9.044;2023-02-11T04:21:47;99710.97;;;0.56;53.46
13387;BME280;6763;48.524;9.044;2023-02-11T04:24:12;99710.19;;;0.57;53.61
13387;BME280;6763;48.524;9.044;2023-02-11T04:26:37;99709.38;;;0.58;53.28
13387;BME280;6763;48.524;9.044;2023-02-11T04:29:03;99711.94;;;0.58;53.75
13387;BME280;6763;48.524;9.044;2023-02-11T04:31:28;99705.22;;;0.60;53.67
13387;BME280;6763;48.524;9.044;2023-02-11T04:33:53;99701.91;;;0.61;53.56
13387;BME280;6763;48.524;9.044;2023-02-11T04:36:19;99706.34;;;0.65;53.52
13387;BME280;6763;48.524;9.044;2023-02-11T04:38:44;99715.19;;;0.72;53.96
13387;BME280;6763;48.524;9.044;2023-02-11T04:41:09;99712.13;;;0.79;53.82
13387;BME280;6763;48.524;9.044;2023-02-11T04:43:35;99726.09;;;0.85;53.92
13387;BME280;6763;48.524;9.044;2023-02-11T04:46:00;99717.94;;;0.92;54.28
13387;BME280;6763;48.524;9.044;2023-02-11T04:48:25;99730.41;;;1.04;54.38
13387;BME280;6763;48.524;9.044;2023-02-11T04:50:51;99724.97;;;1.14;54.07
13387;BME280;6763;48.524;9.044;2023-02-11T04:53:16;99723.09;;;1.27;54.16
13387;BME280;6763;48.524;9.044;2023-02-11T04:55:41;99722.09;;;1.42;53.94
13387;BME280;6763;48.524;9.044;2023-02-11T04:58:07;99713.41;;;1.56;53.96
13387;BME280;6763;48.524;9.044;2023-02-11T05:00:32;99720.72;;;1.66;53.43
13387;BME280;6763;48.524;9.044;2023-02-11T05:02:58;99713.53;;;1.76;53.41
13387;BME280;6763;48.524;9.044;2023-02-11T05:05:23;99715.59;;;1.83;53.70
13387;BME280;6763;48.524;9.044;2023-02-11T05:07:48;99710.97;;;1.94;53.14
13387;BME280;6763;48.524;9.044;2023-02-11T05:10:14;99699.44;;;2.02;52.97
13387;BME280;6763;48.524;9.044;2023-02-11T05:12:39;99700.53;;;2.07;53.23
13387;BME280;6763;48.524;9.044;2023-02-11T05:15:05;99698.22;;;2.13;53.07
13387;BME280;6763;48.524;9.044;2023-02-11T05:17:30;99705.38;;;2.20;52.29
13387;BME280;6763;48.524;9.044;2023-02-11T05:19:55;99697.97;;;2.26;52.84
13387;BME280;6763;48.524;9.044;2023-02-11T05:22:21;99686.25;;;2.31;52.91
13387;BME280;6763;48.524;9.044;2023-02-11T05:24:46;99689.91;;;2.36;52.10
13387;BME280;6763;48.524;9.044;2023-02-11T05:27:12;99693.47;;;2.40;52.05
13387;BME280;6763;48.524;9.044;2023-02-11T05:29:37;99691.13;;;2.44;52.15
13387;BME280;6763;48.524;9.044;2023-02-11T05:32:02;99686.28;;;2.50;52.28
13387;BME280;6763;48.524;9.044;2023-02-11T05:34:28;99682.97;;;2.53;51.64
13387;BME280;6763;48.524;9.044;2023-02-11T05:36:53;99687.22;;;2.53;51.05
13387;BME280;6763;48.524;9.044;2023-02-11T05:39:18;99676.06;;;2.50;51.06
13387;BME280;6763;48.524;9.044;2023-02-11T05:41:44;99669.19;;;2.49;51.42
13387;BME280;6763;48.524;9.044;2023-02-11T05:44:09;99661.38;;;2.46;50.99
13387;BME280;6763;48.524;9.044;2023-02-11T05:46:34;99655.47;;;2.47;51.27
13387;BME280;6763;48.524;9.044;2023-02-11T05:49:00;99655.53;;;2.49;51.28
13387;BME280;6763;48.524;9.044;2023-02-11T05:51:25;99651.28;;;2.49;51.08
13387;BME280;6763;48.524;9.044;2023-02-11T05:53:51;99651.44;;;2.53;51.27
13387;BME280;6763;48.524;9.044;2023-02-11T05:56:17;99634.59;;;2.58;51.31
13387;BME280;6763;48.524;9.044;2023-02-11T05:58:42;99626.19;;;2.60;51.07
13387;BME280;6763;48.524;9.044;2023-02-11T06:01:07;99637.44;;;2.64;51.08
13387;BME280;6763;48.524;9.044;2023-02-11T06:03:33;99635.88;;;2.67;51.09
13387;BME280;6763;48.524;9.044;2023-02-11T06:05:58;99628.31;;;2.70;50.59
13387;BME280;6763;48.524;9.044;2023-02-11T06:08:23;99624.16;;;2.72;50.85
13387;BME280;6763;48.524;9.044;2023-02-11T06:10:49;99617.34;;;2.73;50.61
13387;BME280;6763;48.524;9.044;2023-02-11T06:13:14;99623.34;;;2.73;50.71
13387;BME280;6763;48.524;9.044;2023-02-11T06:15:42;99637.00;;;2.74;50.88
13387;BME280;6763;48.524;9.044;2023-02-11T06:18:08;99640.50;;;2.76;50.87
13387;BME280;6763;48.524;9.044;2023-02-11T06:20:33;99633.84;;;2.79;51.27
13387;BME280;6763;48.524;9.044;2023-02-11T06:22:59;99635.03;;;2.87;51.30
13387;BME280;6763;48.524;9.044;2023-02-11T06:25:24;99631.09;;;2.95;50.96
13387;BME280;6763;48.524;9.044;2023-02-11T06:27:50;99631.31;;;3.01;50.97
13387;BME280;6763;48.524;9.044;2023-02-11T06:30:15;99636.81;;;3.10;50.50
13387;BME280;6763;48.524;9.044;2023-02-11T06:32:40;99650.59;;;3.14;50.68
13387;BME280;6763;48.524;9.044;2023-02-11T06:35:06;99656.72;;;3.18;50.70
13387;BME280;6763;48.524;9.044;2023-02-11T06:37:33;99661.25;;;3.25;50.22
13387;BME280;6763;48.524;9.044;2023-02-11T06:39:59;99657.19;;;3.30;50.20
13387;BME280;6763;48.524;9.044;2023-02-11T06:42:24;99660.72;;;3.32;50.32
13387;BME280;6763;48.524;9.044;2023-02-11T06:44:49;99662.53;;;3.34;50.14
13387;BME280;6763;48.524;9.044;2023-02-11T06:47:15;99656.69;;;3.38;50.34
13387;BME280;6763;48.524;9.044;2023-02-11T06:49:40;99667.06;;;3.41;49.99
13387;BME280;6763;48.524;9.044;2023-02-11T06:52:05;99674.00;;;3.44;50.00
13387;BME280;6763;48.524;9.044;2023-02-11T06:54:31;99660.56;;;3.49;49.99
13387;BME280;6763;48.524;9.044;2023-02-11T06:56:56;99670.94;;;3.52;49.88
13387;BME280;6763;48.524;9.044;2023-02-11T06:59:21;99666.84;;;3.57;50.07
13387;BME280;6763;48.524;9.044;2023-02-11T07:01:47;99663.59;;;3.61;49.83
13387;BME280;6763;48.524;9.044;2023-02-11T07:04:12;99657.84;;;3.67;49.99
13387;BME280;6763;48.524;9.044;2023-02-11T07:06:39;99661.56;;;3.75;50.01
13387;BME280;6763;48.524;9.044;2023-02-11T07:09:05;99663.53;;;3.82;50.06
13387;BME280;6763;48.524;9.044;2023-02-11T07:11:31;99680.94;;;3.91;49.77
13387;BME280;6763;48.524;9.044;2023-02-11T07:14:03;99671.03;;;4.00;49.55
13387;BME280;6763;48.524;9.044;2023-02-11T07:16:30;99674.63;;;4.05;49.55
13387;BME280;6763;48.524;9.044;2023-02-11T07:18:55;99679.19;;;4.12;49.47
13387;BME280;6763;48.524;9.044;2023-02-11T07:21:21;99671.72;;;4.18;49.51
13387;BME280;6763;48.524;9.044;2023-02-11T07:23:48;99677.94;;;4.24;49.43
13387;BME280;6763;48.524;9.044;2023-02-11T07:26:16;99675.63;;;4.30;49.48
13387;BME280;6763;48.524;9.044;2023-02-11T07:28:42;99684.34;;;4.35;49.06
13387;BME280;6763;48.524;9.044;2023-02-11T07:31:14;99682.88;;;4.42;49.06
13387;BME280;6763;48.524;9.044;2023-02-11T07:33:39;99682.06;;;4.43;48.86
13387;BME280;6763;48.524;9.044;2023-02-11T07:36:06;99675.31;;;4.47;48.74
13387;BME280;6763;48.524;9.044;2023-02-11T07:38:33;99677.97;;;4.48;48.52
13387;BME280;6763;48.524;9.044;2023-02-11T07:41:07;99673.00;;;4.53;48.88
13387;BME280;6763;48.524;9.044;2023-02-11T07:43:34;99665.44;;;4.57;48.58
13387;BME280;6763;48.524;9.044;2023-02-11T07:46:03;99659.75;;;4.64;48.53
13387;BME280;6763;48.524;9.044;2023-02-11T07:48:29;99660.69;;;4.68;48.60
13387;BME280;6763;48.524;9.044;2023-02-11T07:50:54;99661.69;;;4.71;48.69
13387;BME280;6763;48.524;9.044;2023-02-11T07:53:19;99664.38;;;4.74;48.54
13387;BME280;6763;48.524;9.044;2023-02-11T07:55:45;99667.94;;;4.79;48.37
13387;BME280;6763;48.524;9.044;2023-02-11T07:58:10;99676.88;;;4.90;48.53
13387;BME280;6763;48.524;9.044;2023-02-11T08:00:35;99685.94;;;5.06;48.46
13387;BME280;6763;48.524;9.044;2023-02-11T08:03:01;99696.81;;;5.24;48.52
13387;BME280;6763;48.524;9.044;2023-02-11T08:05:26;99687.25;;;5.45;48.37
13387;BME280;6763;48.524;9.044;2023-02-11T08:07:53;99686.25;;;5.67;47.57
13387;BME280;6763;48.524;9.044;2023-02-11T08:10:19;99684.88;;;5.78;46.78
13387;BME280;6763;48.524;9.044;2023-02-11T08:12:44;99668.72;;;5.82;46.39
13387;BME280;6763;48.524;9.044;2023-02-11T08:15:10;99660.13;;;5.82;46.27
13387;BME280;6763;48.524;9.044;2023-02-11T08:17:35;99662.78;;;5.83;46.76
13387;BME280;6763;48.524;9.044;2023-02-11T08:20:02;99666.16;;;5.82;46.74
13387;BME280;6763;48.524;9.044;2023-02-11T08:22:30;99659.03;;;5.74;46.41
13387;BME280;6763;48.524;9.044;2023-02-11T08:24:56;99653.81;;;5.71;47.20
13387;BME280;6763;48.524;9.044;2023-02-11T08:27:22;99662.44;;;5.73;47.26
13387;BME280;6763;48.524;9.044;2023-02-11T08:29:48;99661.66;;;5.75;46.86
13387;BME280;6763;48.524;9.044;2023-02-11T08:32:13;99651.31;;;5.74;47.34
13387;BME280;6763;48.524;9.044;2023-02-11T08:34:38;99647.91;;;5.73;47.01
13387;BME280;6763;48.524;9.044;2023-02-11T08:37:04;99653.09;;;5.75;47.14
13387;BME280;6763;48.524;9.044;2023-02-11T08:39:29;99648.13;;;5.81;46.93
13387;BME280;6763;48.524;9.044;2023-02-11T08:41:54;99652.59;;;5.86;46.94
13387;BME280;6763;48.524;9.044;2023-02-11T08:44:21;99651.09;;;5.93;47.12
13387;BME280;6763;48.524;9.044;2023-02-11T08:46:48;99648.09;;;6.07;47.14
13387;BME280;6763;48.524;9.044;2023-02-11T08:49:13;99654.63;;;6.26;46.96
13387;BME280;6763;48.524;9.044;2023-02-11T08:51:39;99661.28;;;6.49;46.42
13387;BME280;6763;48.524;9.044;2023-02-11T08:54:05;99669.00;;;6.80;46.50
13387;BME280;6763;48.524;9.044;2023-02-11T08:56:33;99666.47;;;7.15;45.34
13387;BME280;6763;48.524;9.044;2023-02-11T08:58:59;99668.06;;;7.44;44.67
13387;BME280;6763;48.524;9.044;2023-02-11T09:01:26;99661.03;;;7.74;43.87
13387;BME280;6763;48.524;9.044;2023-02-11T09:03:53;99662.38;;;7.96;43.00
13387;BME280;6763;48.524;9.044;2023-02-11T09:06:19;99655.84;;;8.13;42.49
13387;BME280;6763;48.524;9.044;2023-02-11T09:08:47;99649.16;;;8.21;42.44
13387;BME280;6763;48.524;9.044;2023-02-11T09:11:17;99651.72;;;8.21;41.97
13387;BME280;6763;48.524;9.044;2023-02-11T09:13:43;99648.09;;;8.11;42.05
13387;BME280;6763;48.524;9.044;2023-02-11T09:16:22;99639.19;;;7.97;42.25
13387;BME280;6763;48.524;9.044;2023-02-11T09:18:48;99646.66;;;7.85;42.69
13387;BME280;6763;48.524;9.044;2023-02-11T09:21:15;99648.13;;;7.73;42.81
13387;BME280;6763;48.524;9.044;2023-02-11T09:23:41;99644.34;;;7.60;43.24
13387;BME280;6763;48.524;9.044;2023-02-11T09:26:11;99636.63;;;7.60;43.32
13387;BME280;6763;48.524;9.044;2023-02-11T09:28:37;99637.59;;;7.65;43.34
13387;BME280;6763;48.524;9.044;2023-02-11T09:31:07;99637.81;;;7.74;42.76
13387;BME280;6763;48.524;9.044;2023-02-11T09:33:33;99638.03;;;7.83;43.17
13387;BME280;6763;48.524;9.044;2023-02-11T09:36:05;99627.13;;;7.96;42.90
13387;BME280;6763;48.524;9.044;2023-02-11T09:38:31;99639.47;;;8.11;42.57
13387;BME280;6763;48.524;9.044;2023-02-11T09:40:57;99631.06;;;8.20;42.56
13387;BME280;6763;48.524;9.044;2023-02-11T09:43:46;99636.50;;;8.32;41.93
13387;BME280;6763;48.524;9.044;2023-02-11T09:46:15;99636.78;;;8.45;41.89
13387;BME280;6763;48.524;9.044;2023-02-11T09:48:43;99642.25;;;8.62;42.06
13387;BME280;6763;48.524;9.044;2023-02-11T09:51:48;99641.72;;;8.80;41.37
13387;BME280;6763;48.524;9.044;2023-02-11T09:54:22;99636.94;;;9.01;41.32
13387;BME280;6763;48.524;9.044;2023-02-11T09:56:50;99630.25;;;9.13;41.05
13387;BME280;6763;48.524;9.044;2023-02-11T09:59:16;99620.13;;;9.25;40.68
13387;BME280;6763;48.524;9.044;2023-02-11T10:01:56;99625.44;;;9.34;40.05
13387;BME280;6763;48.524;9.044;2023-02-11T10:09:56;99625.00;;;9.63;40.02
13387;BME280;6763;48.524;9.044;2023-02-11T10:15:46;99620.13;;;9.82;39.47
13387;BME280;6763;48.524;9.044;2023-02-11T10:23:56;99625.03;;;10.24;38.51
13387;BME280;6763;48.524;9.044;2023-02-11T10:26:26;99614.91;;;10.47;38.47
13387;BME280;6763;48.524;9.044;2023-02-11T10:28:59;99608.25;;;10.72;37.92
13387;BME280;6763;48.524;9.044;2023-02-11T10:31:33;99611.09;;;10.97;37.23
13387;BME280;6763;48.524;9.044;2023-02-11T10:34:05;99606.09;;;11.17;36.67
13387;BME280;6763;48.524;9.044;2023-02-11T10:36:36;99606.25;;;11.35;36.60
13387;BME280;6763;48.524;9.044;2023-02-11T10:39:14;99601.25;;;11.64;36.06
13387;BME280;6763;48.524;9.044;2023-02-11T10:41:52;99603.31;;;12.21;35.19
13387;BME280;6763;48.524;9.044;2023-02-11T10:44:23;99593.13;;;13.09;33.81
13387;BME280;6763;48.524;9.044;2023-02-11T10:46:49;99583.41;;;14.04;33.02
13387;BME280;6763;48.524;9.044;2023-02-11T10:49:41;99575.91;;;15.05;30.86
13387;BME280;6763;48.524;9.044;2023-02-11T10:52:17;99576.13;;;15.78;29.81
13387;BME280;6763;48.524;9.044;2023-02-11T10:57:50;99572.38;;;16.01;28.65
13387;BME280;6763;48.524;9.044;2023-02-11T11:02:42;99551.75;;;16.46;27.93
13387;BME280;6763;48.524;9.044;2023-02-11T11:05:18;99542.69;;;16.71;27.87
13387;BME280;6763;48.524;9.044;2023-02-11T11:07:52;99546.75;;;16.89;27.34
13387;BME280;6763;48.524;9.044;2023-02-11T11:10:33;99544.06;;;16.96;26.59
13387;BME280;6763;48.524;9.044;2023-02-11T11:13:00;99551.88;;;16.98;26.98
13387;BME280;6763;48.524;9.044;2023-02-11T11:15:28;99544.72;;;17.09;27.15
13387;BME280;6763;48.524;9.044;2023-02-11T11:18:13;99539.41;;;17.13;26.73
13387;BME280;6763;48.524;9.044;2023-02-11T11:20:59;99537.59;;;17.17;26.83
13387;BME280;6763;48.524;9.044;2023-02-11T11:23:27;99531.41;;;17.21;26.64
13387;BME280;6763;48.524;9.044;2023-02-11T11:26:11;99535.63;;;17.28;26.33
13387;BME280;6763;48.524;9.044;2023-02-11T11:29:01;99533.66;;;17.42;26.49
13387;BME280;6763;48.524;9.044;2023-02-11T11:34:37;99528.56;;;17.82;26.37
13387;BME280;6763;48.524;9.044;2023-02-11T11:37:21;99537.16;;;18.30;25.80
13387;BME280;6763;48.524;9.044;2023-02-11T11:39:56;99530.19;;;18.69;25.44
13387;BME280;6763;48.524;9.044;2023-02-11T11:42:31;99532.34;;;18.88;24.98
13387;BME280;6763;48.524;9.044;2023-02-11T11:47:55;99520.78;;;18.95;24.99
13387;BME280;6763;48.524;9.044;2023-02-11T11:50:42;99521.00;;;19.22;24.78
13387;BME280;6763;48.524;9.044;2023-02-11T11:53:44;99513.56;;;19.39;24.37
13387;BME280;6763;48.524;9.044;2023-02-11T11:56:15;99516.53;;;19.59;24.15
13387;BME280;6763;48.524;9.044;2023-02-11T11:58:41;99516.38;;;19.65;23.96
13387;BME280;6763;48.524;9.044;2023-02-11T12:06:52;99514.44;;;19.39;23.94
13387;BME280;6763;48.524;9.044;2023-02-11T12:18:06;99497.63;;;19.77;23.52
13387;BME280;6763;48.524;9.044;2023-02-11T12:26:17;99497.47;;;20.69;22.55
13387;BME280;6763;48.524;9.044;2023-02-11T12:31:26;99494.88;;;21.22;21.59
13387;BME280;6763;48.524;9.044;2023-02-11T12:34:12;99495.84;;;21.19;21.66
13387;BME280;6763;48.524;9.044;2023-02-11T12:37:04;99497.75;;;20.88;21.74
13387;BME280;6763;48.524;9.044;2023-02-11T12:39:49;99499.03;;;20.47;22.18
13387;BME280;6763;48.524;9.044;2023-02-11T12:42:50;99489.00;;;20.32;22.42
13387;BME280;6763;48.524;9.044;2023-02-11T12:56:34;99493.00;;;19.85;22.51
13387;BME280;6763;48.524;9.044;2023-02-11T12:59:04;99489.56;;;19.83;22.79
13387;BME280;6763;48.524;9.044;2023-02-11T13:01:34;99480.50;;;20.22;22.47
13387;BME280;6763;48.524;9.044;2023-02-11T13:04:08;99476.31;;;20.46;21.89
13387;BME280;6763;48.524;9.044;2023-02-11T13:06:39;99472.88;;;20.42;22.17
13387;BME280;6763;48.524;9.044;2023-02-11T13:09:12;99472.19;;;20.37;21.93
13387;BME280;6763;48.524;9.044;2023-02-11T13:11:45;99478.22;;;20.12;22.50
13387;BME280;6763;48.524;9.044;2023-02-11T13:16:50;99464.50;;;20.01;22.41
13387;BME280;6763;48.524;9.044;2023-02-11T13:24:25;99455.59;;;19.46;23.37
13387;BME280;6763;48.524;9.044;2023-02-11T13:30:33;99463.31;;;19.18;23.80
13387;BME280;6763;48.524;9.044;2023-02-11T13:35:34;99454.94;;;19.38;23.63
13387;BME280;6763;48.524;9.044;2023-02-11T13:38:01;99449.66;;;19.70;23.36
13387;BME280;6763;48.524;9.044;2023-02-11T13:40:31;99441.72;;;20.01;23.22
13387;BME280;6763;48.524;9.044;2023-02-11T13:42:59;99440.06;;;20.28;22.64
13387;BME280;6763;48.524;9.044;2023-02-11T13:48:03;99439.72;;;20.38;22.52
13387;BME280;6763;48.524;9.044;2023-02-11T13:50:34;99439.38;;;20.49;22.52
13387;BME280;6763;48.524;9.044;2023-02-11T13:53:02;99442.56;;;20.59;22.18
13387;BME280;6763;48.524;9.044;2023-02-11T13:55:29;99447.47;;;20.69;22.19
13387;BME280;6763;48.524;9.044;2023-02-11T14:22:03;99438.63;;;23.24;19.56
13387;BME280;6763;48.524;9.044;2023-02-11T14:26:59;99428.59;;;23.32;19.18
13387;BME280;6763;48.524;9.044;2023-02-11T14:29:41;99426.91;;;23.29;19.41
13387;BME280;6763;48.524;9.044;2023-02-11T14:43:21;99438.22;;;24.11;18.46
13387;BME280;6763;48.524;9.044;2023-02-11T14:45:55;99430.47;;;24.43;18.08
13387;BME280;6763;48.524;9.044;2023-02-11T14:48:33;99436.47;;;24.47;18.18
13387;BME280;6763;48.524;9.044;2023-02-11T14:51:12;99425.53;;;24.36;18.09
13387;BME280;6763;48.524;9.044;2023-02-11T14:53:42;99429.38;;;24.12;18.21
13387;BME280;6763;48.524;9.044;2023-02-11T14:56:18;99431.06;;;23.94;18.40
13387;BME280;6763;48.524;9.044;2023-02-11T14:58:46;99436.19;;;23.97;18.27
13387;BME280;6763;48.524;9.044;2023-02-11T15:01:41;99438.88;;;24.16;18.26
13387;BME280;6763;48.524;9.044;2023-02-11T15:04:30;99433.41;;;24.37;17.95
13387;BME280;6763;48.524;9.044;2023-02-11T15:06:58;99432.13;;;24.46;17.95
13387;BME280;6763;48.524;9.044;2023-02-11T15:09:43;99432.88;;;24.12;18.13
13387;BME280;6763;48.524;9.044;2023-02-11T15:12:25;99435.91;;;23.84;18.19
13387;BME280;6763;48.524;9.044;2023-02-11T15:14:55;99439.66;;;23.00;18.91
13387;BME280;6763;48.524;9.044;2023-02-11T15:17:24;99445.09;;;22.32;20.00
13387;BME280;6763;48.524;9.044;2023-02-11T15:19:53;99456.50;;;22.32;19.74
13387;BME280;6763;48.524;9.044;2023-02-11T15:22:31;99455.66;;;22.32;19.75
13387;BME280;6763;48.524;9.044;2023-02-11T15:27:45;99463.56;;;20.86;21.40
13387;BME280;6763;48.524;9.044;2023-02-11T15:32:51;99474.28;;;19.34;23.45
13387;BME280;6763;48.524;9.044;2023-02-11T15:35:22;99479.47;;;18.68;24.18
13387;BME280;6763;48.524;9.044;2023-02-11T15:37:53;99479.81;;;18.15;25.00
13387;BME280;6763;48.524;9.044;2023-02-11T15:40:22;99492.00;;;17.74;25.80
13387;BME280;6763;48.524;9.044;2023-02-11T15:48:13;99488.66;;;16.71;27.33
13387;BME280;6763;48.524;9.044;2023-02-11T15:50:41;99494.28;;;16.43;27.63
13387;BME280;6763;48.524;9.044;2023-02-11T15:55:45;99497.63;;;15.91;28.63
13387;BME280;6763;48.524;9.044;2023-02-11T15:58:11;99501.41;;;15.66;28.93
13387;BME280;6763;48.524;9.044;2023-02-11T16:00:45;99503.41;;;15.40;29.36
13387;BME280;6763;48.524;9.044;2023-02-11T16:03:23;99499.34;;;15.10;29.68
13387;BME280;6763;48.524;9.044;2023-02-11T16:05:49;99508.28;;;14.82;30.13
13387;BME280;6763;48.524;9.044;2023-02-11T16:08:22;99513.69;;;14.58;30.76
13387;BME280;6763;48.524;9.044;2023-02-11T16:11:00;99519.06;;;14.34;31.90
13387;BME280;6763;48.524;9.044;2023-02-11T16:13:29;99508.72;;;14.12;32.57
13387;BME280;6763;48.524;9.044;2023-02-11T16:16:14;99507.94;;;13.94;32.66
13387;BME280;6763;48.524;9.044;2023-02-11T16:18:49;99514.09;;;13.76;33.11